<?xml version="1.0" encoding="cp1251"?>
<gpx version="1.0" creator="Track Album - http://www.track-album.com" xmlns:xsi="http://www.w3.org/2001/XMLSchema-instance" xmlns="http://www.topografix.com/GPX/1/0" xsi:schemaLocation="http://www.topografix.com/GPX/1/0 http://www.topografix.com/GPX/1/0/gpx.xsd">
  <trk>
    <name>
      2012_12_08__09_19(3)
    </name>
    <trkseg>
      <trkpt lat="57.78869505" lon="56.846334273">
        <ele>
          141.929992675781
        </ele>
        <time>
          2012-12-08T10:05:36Z
        </time>
      </trkpt>
      <trkpt lat="57.788614081" lon="56.846365035">
        <ele>
          140.970001220703
        </ele>
        <time>
          2012-12-08T10:05:41Z
        </time>
      </trkpt>
      <trkpt lat="57.788412915" lon="56.846326562">
        <ele>
          140.490005493164
        </ele>
        <time>
          2012-12-08T10:05:46Z
        </time>
      </trkpt>
      <trkpt lat="57.788298754" lon="56.846314911">
        <ele>
          139.529998779297
        </ele>
        <time>
          2012-12-08T10:05:49Z
        </time>
      </trkpt>
      <trkpt lat="57.788250474" lon="56.846454721">
        <ele>
          138.570007324219
        </ele>
        <time>
          2012-12-08T10:05:54Z
        </time>
      </trkpt>
      <trkpt lat="57.788315015" lon="56.846453212">
        <ele>
          140.009994506836
        </ele>
        <time>
          2012-12-08T10:05:56Z
        </time>
      </trkpt>
      <trkpt lat="57.788476618" lon="56.846789997">
        <ele>
          140.970001220703
        </ele>
        <time>
          2012-12-08T10:06:05Z
        </time>
      </trkpt>
      <trkpt lat="57.788604023" lon="56.846841294">
        <ele>
          140.970001220703
        </ele>
        <time>
          2012-12-08T10:06:08Z
        </time>
      </trkpt>
      <trkpt lat="57.788824299" lon="56.846912289">
        <ele>
          143.369995117188
        </ele>
        <time>
          2012-12-08T10:06:14Z
        </time>
      </trkpt>
      <trkpt lat="57.788779205" lon="56.846901644">
        <ele>
          145.300003051758
        </ele>
        <time>
          2012-12-08T10:06:21Z
        </time>
      </trkpt>
      <trkpt lat="57.788748778" lon="56.846875576">
        <ele>
          144.339996337891
        </ele>
        <time>
          2012-12-08T10:06:22Z
        </time>
      </trkpt>
      <trkpt lat="57.788278302" lon="56.846297728">
        <ele>
          140.970001220703
        </ele>
        <time>
          2012-12-08T10:06:30Z
        </time>
      </trkpt>
      <trkpt lat="57.788233124" lon="56.846289597">
        <ele>
          140.970001220703
        </ele>
        <time>
          2012-12-08T10:06:31Z
        </time>
      </trkpt>
      <trkpt lat="57.788174534" lon="56.846282808">
        <ele>
          140.009994506836
        </ele>
        <time>
          2012-12-08T10:06:33Z
        </time>
      </trkpt>
      <trkpt lat="57.788307974" lon="56.846502917">
        <ele>
          134.720001220703
        </ele>
        <time>
          2012-12-08T10:06:39Z
        </time>
      </trkpt>
      <trkpt lat="57.788506122" lon="56.84667835">
        <ele>
          139.529998779297
        </ele>
        <time>
          2012-12-08T10:06:45Z
        </time>
      </trkpt>
      <trkpt lat="57.788722878" lon="56.846857723">
        <ele>
          142.889999389648
        </ele>
        <time>
          2012-12-08T10:06:53Z
        </time>
      </trkpt>
      <trkpt lat="57.788736373" lon="56.846920503">
        <ele>
          142.889999389648
        </ele>
        <time>
          2012-12-08T10:06:55Z
        </time>
      </trkpt>
      <trkpt lat="57.788610058" lon="56.846975656">
        <ele>
          142.889999389648
        </ele>
        <time>
          2012-12-08T10:06:59Z
        </time>
      </trkpt>
      <trkpt lat="57.788341586" lon="56.846722858">
        <ele>
          140.970001220703
        </ele>
        <time>
          2012-12-08T10:07:03Z
        </time>
      </trkpt>
      <trkpt lat="57.788199009" lon="56.846475927">
        <ele>
          140.490005493164
        </ele>
        <time>
          2012-12-08T10:07:05Z
        </time>
      </trkpt>
      <trkpt lat="57.787941434" lon="56.846431587">
        <ele>
          140.490005493164
        </ele>
        <time>
          2012-12-08T10:07:10Z
        </time>
      </trkpt>
      <trkpt lat="57.788036149" lon="56.846563434">
        <ele>
          140.970001220703
        </ele>
        <time>
          2012-12-08T10:07:13Z
        </time>
      </trkpt>
      <trkpt lat="57.788303364" lon="56.846655132">
        <ele>
          141.929992675781
        </ele>
        <time>
          2012-12-08T10:07:19Z
        </time>
      </trkpt>
      <trkpt lat="57.788461447" lon="56.8467646">
        <ele>
          141.449996948242
        </ele>
        <time>
          2012-12-08T10:07:23Z
        </time>
      </trkpt>
      <trkpt lat="57.788598323" lon="56.846786728">
        <ele>
          142.410003662109
        </ele>
        <time>
          2012-12-08T10:07:26Z
        </time>
      </trkpt>
      <trkpt lat="57.788699828" lon="56.846823106">
        <ele>
          144.339996337891
        </ele>
        <time>
          2012-12-08T10:07:28Z
        </time>
      </trkpt>
      <trkpt lat="57.788950112" lon="56.846886138">
        <ele>
          148.179992675781
        </ele>
        <time>
          2012-12-08T10:07:33Z
        </time>
      </trkpt>
      <trkpt lat="57.789096627" lon="56.846992923">
        <ele>
          149.139999389648
        </ele>
        <time>
          2012-12-08T10:07:37Z
        </time>
      </trkpt>
      <trkpt lat="57.789015574" lon="56.84714824">
        <ele>
          146.259994506836
        </ele>
        <time>
          2012-12-08T10:07:43Z
        </time>
      </trkpt>
      <trkpt lat="57.788774511" lon="56.846956797">
        <ele>
          146.259994506836
        </ele>
        <time>
          2012-12-08T10:07:48Z
        </time>
      </trkpt>
      <trkpt lat="57.788599161" lon="56.846726295">
        <ele>
          147.220001220703
        </ele>
        <time>
          2012-12-08T10:07:52Z
        </time>
      </trkpt>
      <trkpt lat="57.788394475" lon="56.846450362">
        <ele>
          148.660003662109
        </ele>
        <time>
          2012-12-08T10:07:56Z
        </time>
      </trkpt>
      <trkpt lat="57.788171601" lon="56.84632916">
        <ele>
          148.660003662109
        </ele>
        <time>
          2012-12-08T10:08:01Z
        </time>
      </trkpt>
      <trkpt lat="57.788313087" lon="56.846502833">
        <ele>
          149.139999389648
        </ele>
        <time>
          2012-12-08T10:08:08Z
        </time>
      </trkpt>
      <trkpt lat="57.788398583" lon="56.846571732">
        <ele>
          148.660003662109
        </ele>
        <time>
          2012-12-08T10:08:10Z
        </time>
      </trkpt>
      <trkpt lat="57.788532525" lon="56.846723696">
        <ele>
          151.539993286133
        </ele>
        <time>
          2012-12-08T10:08:15Z
        </time>
      </trkpt>
      <trkpt lat="57.788620535" lon="56.846855208">
        <ele>
          151.539993286133
        </ele>
        <time>
          2012-12-08T10:08:18Z
        </time>
      </trkpt>
      <trkpt lat="57.788697146" lon="56.847080179">
        <ele>
          153.949996948242
        </ele>
        <time>
          2012-12-08T10:08:25Z
        </time>
      </trkpt>
      <trkpt lat="57.788238991" lon="56.846788488">
        <ele>
          152.509994506836
        </ele>
        <time>
          2012-12-08T10:08:31Z
        </time>
      </trkpt>
      <trkpt lat="57.787974291" lon="56.846489506">
        <ele>
          153.470001220703
        </ele>
        <time>
          2012-12-08T10:08:35Z
        </time>
      </trkpt>
      <trkpt lat="57.787304912" lon="56.845568251">
        <ele>
          157.309997558594
        </ele>
        <time>
          2012-12-08T10:08:46Z
        </time>
      </trkpt>
      <trkpt lat="57.786994781" lon="56.845256528">
        <ele>
          161.639999389648
        </ele>
        <time>
          2012-12-08T10:08:51Z
        </time>
      </trkpt>
      <trkpt lat="57.786481557" lon="56.844676752">
        <ele>
          166.929992675781
        </ele>
        <time>
          2012-12-08T10:09:00Z
        </time>
      </trkpt>
      <trkpt lat="57.786072437" lon="56.844323538">
        <ele>
          167.410003662109
        </ele>
        <time>
          2012-12-08T10:09:07Z
        </time>
      </trkpt>
      <trkpt lat="57.785963388" lon="56.844321275">
        <ele>
          168.850006103516
        </ele>
        <time>
          2012-12-08T10:09:12Z
        </time>
      </trkpt>
      <trkpt lat="57.785980571" lon="56.844450105">
        <ele>
          169.330001831055
        </ele>
        <time>
          2012-12-08T10:09:16Z
        </time>
      </trkpt>
      <trkpt lat="57.786096241" lon="56.84468966">
        <ele>
          171.729995727539
        </ele>
        <time>
          2012-12-08T10:09:23Z
        </time>
      </trkpt>
      <trkpt lat="57.786254659" lon="56.84492955">
        <ele>
          174.619995117188
        </ele>
        <time>
          2012-12-08T10:09:32Z
        </time>
      </trkpt>
      <trkpt lat="57.786351135" lon="56.84494908">
        <ele>
          177.5
        </ele>
        <time>
          2012-12-08T10:09:36Z
        </time>
      </trkpt>
      <trkpt lat="57.786426488" lon="56.845017141">
        <ele>
          180.380004882813
        </ele>
        <time>
          2012-12-08T10:09:42Z
        </time>
      </trkpt>
      <trkpt lat="57.786511062" lon="56.84523792">
        <ele>
          181.830001831055
        </ele>
        <time>
          2012-12-08T10:09:52Z
        </time>
      </trkpt>
      <trkpt lat="57.786571579" lon="56.845426094">
        <ele>
          179.899993896484
        </ele>
        <time>
          2012-12-08T10:09:58Z
        </time>
      </trkpt>
      <trkpt lat="57.786770733" lon="56.845547631">
        <ele>
          179.899993896484
        </ele>
        <time>
          2012-12-08T10:10:04Z
        </time>
      </trkpt>
      <trkpt lat="57.787244478" lon="56.845893804">
        <ele>
          182.789993286133
        </ele>
        <time>
          2012-12-08T10:10:18Z
        </time>
      </trkpt>
      <trkpt lat="57.787486548" lon="56.846413901">
        <ele>
          183.75
        </ele>
        <time>
          2012-12-08T10:10:29Z
        </time>
      </trkpt>
      <trkpt lat="57.787698191" lon="56.8465087">
        <ele>
          178.460006713867
        </ele>
        <time>
          2012-12-08T10:10:34Z
        </time>
      </trkpt>
      <trkpt lat="57.787975632" lon="56.846499313">
        <ele>
          177.979995727539
        </ele>
        <time>
          2012-12-08T10:10:39Z
        </time>
      </trkpt>
      <trkpt lat="57.788151232" lon="56.846572403">
        <ele>
          174.139999389648
        </ele>
        <time>
          2012-12-08T10:10:42Z
        </time>
      </trkpt>
      <trkpt lat="57.788076801" lon="56.846764935">
        <ele>
          166.449996948242
        </ele>
        <time>
          2012-12-08T10:10:47Z
        </time>
      </trkpt>
      <trkpt lat="57.78795694" lon="56.846635099">
        <ele>
          165.479995727539
        </ele>
        <time>
          2012-12-08T10:10:49Z
        </time>
      </trkpt>
      <trkpt lat="57.787645552" lon="56.846197564">
        <ele>
          161.639999389648
        </ele>
        <time>
          2012-12-08T10:10:54Z
        </time>
      </trkpt>
      <trkpt lat="57.787409937" lon="56.845908556">
        <ele>
          161.160003662109
        </ele>
        <time>
          2012-12-08T10:10:58Z
        </time>
      </trkpt>
      <trkpt lat="57.786687752" lon="56.844874648">
        <ele>
          167.410003662109
        </ele>
        <time>
          2012-12-08T10:11:09Z
        </time>
      </trkpt>
      <trkpt lat="57.786443168" lon="56.844536606">
        <ele>
          170.770004272461
        </ele>
        <time>
          2012-12-08T10:11:13Z
        </time>
      </trkpt>
      <trkpt lat="57.78560238" lon="56.843921291">
        <ele>
          175.580001831055
        </ele>
        <time>
          2012-12-08T10:11:24Z
        </time>
      </trkpt>
      <trkpt lat="57.785381349" lon="56.843790533">
        <ele>
          176.539993286133
        </ele>
        <time>
          2012-12-08T10:11:27Z
        </time>
      </trkpt>
      <trkpt lat="57.785012461" lon="56.84349264">
        <ele>
          177.5
        </ele>
        <time>
          2012-12-08T10:11:32Z
        </time>
      </trkpt>
      <trkpt lat="57.784522874" lon="56.842864416">
        <ele>
          185.669998168945
        </ele>
        <time>
          2012-12-08T10:11:39Z
        </time>
      </trkpt>
      <trkpt lat="57.784424471" lon="56.842968939">
        <ele>
          184.229995727539
        </ele>
        <time>
          2012-12-08T10:11:45Z
        </time>
      </trkpt>
      <trkpt lat="57.784666708" lon="56.843156358">
        <ele>
          186.149993896484
        </ele>
        <time>
          2012-12-08T10:11:52Z
        </time>
      </trkpt>
      <trkpt lat="57.784787659" lon="56.843240848">
        <ele>
          186.630004882813
        </ele>
        <time>
          2012-12-08T10:11:56Z
        </time>
      </trkpt>
      <trkpt lat="57.785125617" lon="56.843594816">
        <ele>
          187.589996337891
        </ele>
        <time>
          2012-12-08T10:12:05Z
        </time>
      </trkpt>
      <trkpt lat="57.785281269" lon="56.843672767">
        <ele>
          190.960006713867
        </ele>
        <time>
          2012-12-08T10:12:10Z
        </time>
      </trkpt>
      <trkpt lat="57.785502467" lon="56.843848284">
        <ele>
          194.800003051758
        </ele>
        <time>
          2012-12-08T10:12:15Z
        </time>
      </trkpt>
      <trkpt lat="57.785642026" lon="56.843926823">
        <ele>
          194.800003051758
        </ele>
        <time>
          2012-12-08T10:12:18Z
        </time>
      </trkpt>
      <trkpt lat="57.785839084" lon="56.843993878">
        <ele>
          195.770004272461
        </ele>
        <time>
          2012-12-08T10:12:23Z
        </time>
      </trkpt>
      <trkpt lat="57.786200512" lon="56.844135867">
        <ele>
          191.919998168945
        </ele>
        <time>
          2012-12-08T10:12:30Z
        </time>
      </trkpt>
      <trkpt lat="57.786493963" lon="56.844356731">
        <ele>
          194.800003051758
        </ele>
        <time>
          2012-12-08T10:12:39Z
        </time>
      </trkpt>
      <trkpt lat="57.786530843" lon="56.844357317">
        <ele>
          195.279998779297
        </ele>
        <time>
          2012-12-08T10:12:40Z
        </time>
      </trkpt>
      <trkpt lat="57.786659673" lon="56.844496038">
        <ele>
          197.210006713867
        </ele>
        <time>
          2012-12-08T10:12:44Z
        </time>
      </trkpt>
      <trkpt lat="57.78689512" lon="56.844830895">
        <ele>
          197.690002441406
        </ele>
        <time>
          2012-12-08T10:12:55Z
        </time>
      </trkpt>
      <trkpt lat="57.786905011" lon="56.844932232">
        <ele>
          198.649993896484
        </ele>
        <time>
          2012-12-08T10:12:57Z
        </time>
      </trkpt>
      <trkpt lat="57.786586499" lon="56.845150162">
        <ele>
          196.25
        </ele>
        <time>
          2012-12-08T10:13:04Z
        </time>
      </trkpt>
      <trkpt lat="57.786257593" lon="56.844841037">
        <ele>
          194.320007324219
        </ele>
        <time>
          2012-12-08T10:13:08Z
        </time>
      </trkpt>
      <trkpt lat="57.786113173" lon="56.844599638">
        <ele>
          192.880004882813
        </ele>
        <time>
          2012-12-08T10:13:10Z
        </time>
      </trkpt>
      <trkpt lat="57.78535394" lon="56.843852475">
        <ele>
          196.25
        </ele>
        <time>
          2012-12-08T10:13:20Z
        </time>
      </trkpt>
      <trkpt lat="57.785070632" lon="56.843692381">
        <ele>
          195.279998779297
        </ele>
        <time>
          2012-12-08T10:13:24Z
        </time>
      </trkpt>
      <trkpt lat="57.784671653" lon="56.843129536">
        <ele>
          190.960006713867
        </ele>
        <time>
          2012-12-08T10:13:30Z
        </time>
      </trkpt>
      <trkpt lat="57.784335287" lon="56.843040101">
        <ele>
          184.229995727539
        </ele>
        <time>
          2012-12-08T10:13:36Z
        </time>
      </trkpt>
      <trkpt lat="57.784308884" lon="56.843087878">
        <ele>
          183.75
        </ele>
        <time>
          2012-12-08T10:13:38Z
        </time>
      </trkpt>
      <trkpt lat="57.784494292" lon="56.843321482">
        <ele>
          181.830001831055
        </ele>
        <time>
          2012-12-08T10:13:44Z
        </time>
      </trkpt>
      <trkpt lat="57.784534274" lon="56.843336401">
        <ele>
          181.830001831055
        </ele>
        <time>
          2012-12-08T10:13:45Z
        </time>
      </trkpt>
      <trkpt lat="57.784792436" lon="56.843374791">
        <ele>
          180.380004882813
        </ele>
        <time>
          2012-12-08T10:13:51Z
        </time>
      </trkpt>
      <trkpt lat="57.784877177" lon="56.843407899">
        <ele>
          178.940002441406
        </ele>
        <time>
          2012-12-08T10:13:53Z
        </time>
      </trkpt>
      <trkpt lat="57.785140956" lon="56.843604958">
        <ele>
          175.580001831055
        </ele>
        <time>
          2012-12-08T10:14:00Z
        </time>
      </trkpt>
      <trkpt lat="57.78528437" lon="56.843743594">
        <ele>
          172.210006713867
        </ele>
        <time>
          2012-12-08T10:14:04Z
        </time>
      </trkpt>
      <trkpt lat="57.785540437" lon="56.843988933">
        <ele>
          170.770004272461
        </ele>
        <time>
          2012-12-08T10:14:10Z
        </time>
      </trkpt>
      <trkpt lat="57.785945367" lon="56.844166713">
        <ele>
          177.5
        </ele>
        <time>
          2012-12-08T10:14:19Z
        </time>
      </trkpt>
      <trkpt lat="57.786437804" lon="56.844484303">
        <ele>
          183.270004272461
        </ele>
        <time>
          2012-12-08T10:14:29Z
        </time>
      </trkpt>
      <trkpt lat="57.7865435" lon="56.844541552">
        <ele>
          183.75
        </ele>
        <time>
          2012-12-08T10:14:31Z
        </time>
      </trkpt>
      <trkpt lat="57.786675598" lon="56.844653115">
        <ele>
          184.229995727539
        </ele>
        <time>
          2012-12-08T10:14:34Z
        </time>
      </trkpt>
      <trkpt lat="57.78685363" lon="56.844784543">
        <ele>
          183.75
        </ele>
        <time>
          2012-12-08T10:14:38Z
        </time>
      </trkpt>
      <trkpt lat="57.78713258" lon="56.844957042">
        <ele>
          184.229995727539
        </ele>
        <time>
          2012-12-08T10:14:45Z
        </time>
      </trkpt>
      <trkpt lat="57.787362412" lon="56.845214199">
        <ele>
          188.559997558594
        </ele>
        <time>
          2012-12-08T10:14:52Z
        </time>
      </trkpt>
      <trkpt lat="57.787460647" lon="56.845273459">
        <ele>
          190.479995727539
        </ele>
        <time>
          2012-12-08T10:14:55Z
        </time>
      </trkpt>
      <trkpt lat="57.787629543" lon="56.845478816">
        <ele>
          190.479995727539
        </ele>
        <time>
          2012-12-08T10:15:00Z
        </time>
      </trkpt>
      <trkpt lat="57.787921066" lon="56.845854493">
        <ele>
          188.080001831055
        </ele>
        <time>
          2012-12-08T10:15:09Z
        </time>
      </trkpt>
      <trkpt lat="57.787676482" lon="56.845996063">
        <ele>
          181.830001831055
        </ele>
        <time>
          2012-12-08T10:15:15Z
        </time>
      </trkpt>
      <trkpt lat="57.787524182" lon="56.845812667">
        <ele>
          179.419998168945
        </ele>
        <time>
          2012-12-08T10:15:17Z
        </time>
      </trkpt>
      <trkpt lat="57.787296865" lon="56.845434643">
        <ele>
          174.619995117188
        </ele>
        <time>
          2012-12-08T10:15:20Z
        </time>
      </trkpt>
      <trkpt lat="57.7868859" lon="56.84485428">
        <ele>
          170.770004272461
        </ele>
        <time>
          2012-12-08T10:15:25Z
        </time>
      </trkpt>
      <trkpt lat="57.786580548" lon="56.844562842">
        <ele>
          171.25
        </ele>
        <time>
          2012-12-08T10:15:29Z
        </time>
      </trkpt>
      <trkpt lat="57.786288774" lon="56.844702568">
        <ele>
          171.729995727539
        </ele>
        <time>
          2012-12-08T10:15:35Z
        </time>
      </trkpt>
      <trkpt lat="57.786503183" lon="56.844982356">
        <ele>
          170.770004272461
        </ele>
        <time>
          2012-12-08T10:15:41Z
        </time>
      </trkpt>
      <trkpt lat="57.786612148" lon="56.845045472">
        <ele>
          170.770004272461
        </ele>
        <time>
          2012-12-08T10:15:43Z
        </time>
      </trkpt>
      <trkpt lat="57.786898054" lon="56.845282931">
        <ele>
          173.660003662109
        </ele>
        <time>
          2012-12-08T10:15:49Z
        </time>
      </trkpt>
      <trkpt lat="57.786982376" lon="56.845355434">
        <ele>
          175.580001831055
        </ele>
        <time>
          2012-12-08T10:15:51Z
        </time>
      </trkpt>
      <trkpt lat="57.787186978" lon="56.84553883">
        <ele>
          177.5
        </ele>
        <time>
          2012-12-08T10:15:57Z
        </time>
      </trkpt>
      <trkpt lat="57.787384037" lon="56.845737062">
        <ele>
          174.619995117188
        </ele>
        <time>
          2012-12-08T10:16:06Z
        </time>
      </trkpt>
      <trkpt lat="57.787551926" lon="56.845930098">
        <ele>
          173.660003662109
        </ele>
        <time>
          2012-12-08T10:16:10Z
        </time>
      </trkpt>
      <trkpt lat="57.787782429" lon="56.846075021">
        <ele>
          177.5
        </ele>
        <time>
          2012-12-08T10:16:18Z
        </time>
      </trkpt>
      <trkpt lat="57.787817884" lon="56.846082564">
        <ele>
          177.5
        </ele>
        <time>
          2012-12-08T10:16:19Z
        </time>
      </trkpt>
      <trkpt lat="57.788076717" lon="56.846119026">
        <ele>
          175.100006103516
        </ele>
        <time>
          2012-12-08T10:16:26Z
        </time>
      </trkpt>
      <trkpt lat="57.788182748" lon="56.846201755">
        <ele>
          175.100006103516
        </ele>
        <time>
          2012-12-08T10:16:29Z
        </time>
      </trkpt>
      <trkpt lat="57.788273105" lon="56.846212819">
        <ele>
          175.580001831055
        </ele>
        <time>
          2012-12-08T10:16:32Z
        </time>
      </trkpt>
      <trkpt lat="57.788458345" lon="56.846342739">
        <ele>
          172.210006713867
        </ele>
        <time>
          2012-12-08T10:16:38Z
        </time>
      </trkpt>
      <trkpt lat="57.788650794" lon="56.846541893">
        <ele>
          168.850006103516
        </ele>
        <time>
          2012-12-08T10:16:45Z
        </time>
      </trkpt>
      <trkpt lat="57.788701924" lon="56.846612804">
        <ele>
          169.809997558594
        </ele>
        <time>
          2012-12-08T10:16:47Z
        </time>
      </trkpt>
      <trkpt lat="57.788944161" lon="56.846620934">
        <ele>
          172.210006713867
        </ele>
        <time>
          2012-12-08T10:16:55Z
        </time>
      </trkpt>
      <trkpt lat="57.788897306" lon="56.846698383">
        <ele>
          165.479995727539
        </ele>
        <time>
          2012-12-08T10:17:00Z
        </time>
      </trkpt>
      <trkpt lat="57.788824886" lon="56.846669465">
        <ele>
          164.520004272461
        </ele>
        <time>
          2012-12-08T10:17:01Z
        </time>
      </trkpt>
      <trkpt lat="57.788536465" lon="56.846463438">
        <ele>
          165.479995727539
        </ele>
        <time>
          2012-12-08T10:17:05Z
        </time>
      </trkpt>
      <trkpt lat="57.788348962" lon="56.846358497">
        <ele>
          166.449996948242
        </ele>
        <time>
          2012-12-08T10:17:08Z
        </time>
      </trkpt>
      <trkpt lat="57.788020475" lon="56.846105196">
        <ele>
          167.410003662109
        </ele>
        <time>
          2012-12-08T10:17:14Z
        </time>
      </trkpt>
      <trkpt lat="57.787868679" lon="56.845930852">
        <ele>
          167.410003662109
        </ele>
        <time>
          2012-12-08T10:17:17Z
        </time>
      </trkpt>
      <trkpt lat="57.787382193" lon="56.845546542">
        <ele>
          167.889999389648
        </ele>
        <time>
          2012-12-08T10:17:25Z
        </time>
      </trkpt>
      <trkpt lat="57.786904927" lon="56.844953103">
        <ele>
          171.729995727539
        </ele>
        <time>
          2012-12-08T10:17:32Z
        </time>
      </trkpt>
      <trkpt lat="57.786633186" lon="56.844725283">
        <ele>
          173.169998168945
        </ele>
        <time>
          2012-12-08T10:17:36Z
        </time>
      </trkpt>
      <trkpt lat="57.786408886" lon="56.844492098">
        <ele>
          177.020004272461
        </ele>
        <time>
          2012-12-08T10:17:40Z
        </time>
      </trkpt>
      <trkpt lat="57.786141252" lon="56.844313983">
        <ele>
          176.539993286133
        </ele>
        <time>
          2012-12-08T10:17:44Z
        </time>
      </trkpt>
      <trkpt lat="57.785935309" lon="56.844417583">
        <ele>
          171.729995727539
        </ele>
        <time>
          2012-12-08T10:17:50Z
        </time>
      </trkpt>
      <trkpt lat="57.786011417" lon="56.844536187">
        <ele>
          170.770004272461
        </ele>
        <time>
          2012-12-08T10:17:53Z
        </time>
      </trkpt>
      <trkpt lat="57.786238817" lon="56.844834415">
        <ele>
          166.449996948242
        </ele>
        <time>
          2012-12-08T10:17:59Z
        </time>
      </trkpt>
      <trkpt lat="57.786326995" lon="56.844984787">
        <ele>
          167.410003662109
        </ele>
        <time>
          2012-12-08T10:18:02Z
        </time>
      </trkpt>
      <trkpt lat="57.786610639" lon="56.845233645">
        <ele>
          165.479995727539
        </ele>
        <time>
          2012-12-08T10:18:09Z
        </time>
      </trkpt>
      <trkpt lat="57.786752628" lon="56.845404217">
        <ele>
          163.559997558594
        </ele>
        <time>
          2012-12-08T10:18:13Z
        </time>
      </trkpt>
      <trkpt lat="57.787120677" lon="56.845829347">
        <ele>
          158.75
        </ele>
        <time>
          2012-12-08T10:18:21Z
        </time>
      </trkpt>
      <trkpt lat="57.787357885" lon="56.845921464">
        <ele>
          161.639999389648
        </ele>
        <time>
          2012-12-08T10:18:26Z
        </time>
      </trkpt>
      <trkpt lat="57.787511945" lon="56.84608818">
        <ele>
          159.240005493164
        </ele>
        <time>
          2012-12-08T10:18:29Z
        </time>
      </trkpt>
      <trkpt lat="57.787851077" lon="56.846394036">
        <ele>
          156.830001831055
        </ele>
        <time>
          2012-12-08T10:18:36Z
        </time>
      </trkpt>
      <trkpt lat="57.787964484" lon="56.846408118">
        <ele>
          156.830001831055
        </ele>
        <time>
          2012-12-08T10:18:38Z
        </time>
      </trkpt>
      <trkpt lat="57.788214767" lon="56.846393785">
        <ele>
          155.389999389648
        </ele>
        <time>
          2012-12-08T10:18:43Z
        </time>
      </trkpt>
      <trkpt lat="57.788519701" lon="56.846436113">
        <ele>
          154.910003662109
        </ele>
        <time>
          2012-12-08T10:18:51Z
        </time>
      </trkpt>
      <trkpt lat="57.788626235" lon="56.846377691">
        <ele>
          153.949996948242
        </ele>
        <time>
          2012-12-08T10:18:53Z
        </time>
      </trkpt>
      <trkpt lat="57.788848691" lon="56.846340727">
        <ele>
          153.949996948242
        </ele>
        <time>
          2012-12-08T10:18:58Z
        </time>
      </trkpt>
      <trkpt lat="57.78891189" lon="56.846623449">
        <ele>
          148.179992675781
        </ele>
        <time>
          2012-12-08T10:19:04Z
        </time>
      </trkpt>
      <trkpt lat="57.788963355" lon="56.846641051">
        <ele>
          147.220001220703
        </ele>
        <time>
          2012-12-08T10:19:05Z
        </time>
      </trkpt>
      <trkpt lat="57.789172316" lon="56.846661502">
        <ele>
          145.300003051758
        </ele>
        <time>
          2012-12-08T10:19:09Z
        </time>
      </trkpt>
      <trkpt lat="57.78924549" lon="56.846944811">
        <ele>
          142.889999389648
        </ele>
        <time>
          2012-12-08T10:19:14Z
        </time>
      </trkpt>
      <trkpt lat="57.789216908" lon="56.847210182">
        <ele>
          140.970001220703
        </ele>
        <time>
          2012-12-08T10:19:19Z
        </time>
      </trkpt>
      <trkpt lat="57.788995793" lon="56.847192161">
        <ele>
          140.970001220703
        </ele>
        <time>
          2012-12-08T10:19:24Z
        </time>
      </trkpt>
      <trkpt lat="57.788763866" lon="56.846856968">
        <ele>
          142.889999389648
        </ele>
        <time>
          2012-12-08T10:19:28Z
        </time>
      </trkpt>
      <trkpt lat="57.788601005" lon="56.846531751">
        <ele>
          144.339996337891
        </ele>
        <time>
          2012-12-08T10:19:31Z
        </time>
      </trkpt>
      <trkpt lat="57.788348207" lon="56.846438209">
        <ele>
          141.449996948242
        </ele>
        <time>
          2012-12-08T10:19:37Z
        </time>
      </trkpt>
      <trkpt lat="57.788543506" lon="56.84658506">
        <ele>
          141.449996948242
        </ele>
        <time>
          2012-12-08T10:19:42Z
        </time>
      </trkpt>
      <trkpt lat="57.788803931" lon="56.846705507">
        <ele>
          143.369995117188
        </ele>
        <time>
          2012-12-08T10:19:49Z
        </time>
      </trkpt>
      <trkpt lat="57.788845338" lon="56.846727468">
        <ele>
          142.889999389648
        </ele>
        <time>
          2012-12-08T10:19:50Z
        </time>
      </trkpt>
      <trkpt lat="57.788931001" lon="56.846788153">
        <ele>
          142.889999389648
        </ele>
        <time>
          2012-12-08T10:19:52Z
        </time>
      </trkpt>
      <trkpt lat="57.7889424" lon="56.846872224">
        <ele>
          139.529998779297
        </ele>
        <time>
          2012-12-08T10:19:59Z
        </time>
      </trkpt>
      <trkpt lat="57.788927732" lon="56.846947325">
        <ele>
          139.050003051758
        </ele>
        <time>
          2012-12-08T10:20:04Z
        </time>
      </trkpt>
      <trkpt lat="57.788831759" lon="56.846681451">
        <ele>
          142.410003662109
        </ele>
        <time>
          2012-12-08T10:20:07Z
        </time>
      </trkpt>
      <trkpt lat="57.788801668" lon="56.846546587">
        <ele>
          142.410003662109
        </ele>
        <time>
          2012-12-08T10:20:09Z
        </time>
      </trkpt>
      <trkpt lat="57.788641658" lon="56.846347768">
        <ele>
          139.529998779297
        </ele>
        <time>
          2012-12-08T10:20:13Z
        </time>
      </trkpt>
      <trkpt lat="57.788705528" lon="56.846430665">
        <ele>
          139.529998779297
        </ele>
        <time>
          2012-12-08T10:20:19Z
        </time>
      </trkpt>
      <trkpt lat="57.788839806" lon="56.846494619">
        <ele>
          139.050003051758
        </ele>
        <time>
          2012-12-08T10:20:25Z
        </time>
      </trkpt>
    </trkseg>
  </trk>
</gpx>
